Rito de las Sillas, New Mexico
Current Conditions -  °F | °C
As of 9:15 AM on Monday 24 Nov 2014 (Local Time) from KLAM Reporting Station
Scattered Clouds Scattered Clouds  
Wind Chill: 25°   Ceiling: Unl
Heat Index: 25°   Visibility: 10mi
Dew Point:   Wind: 3mph
Humidity: 50%   Direction: 90°E
Pressure: 30.1"   Gusts: NA
Location:  36.1885°N, 106.557°W
Report Text: KLAM 241615Z AUTO 09003KT 10SM SCT100 SCT120 M04/M13 A3010 RMK AO2 T10371128
Loading
Personal Weather Stations






























Interactive Weather Map New forecast layout! Learn more

10-Day Weather Forecast

Advertisements
Track Severe Weather on mobile